Latest Weather Observations for Walgett

IDN60801

Issued at 7:33 am EST Tuesday 28 June 2016 (issued every 30 minutes, with the page automatically refreshed every 10 minutes)

About weather observations | Map of weather stations | Latest weather observations for NSW | Other Formats
Station Details ID: 052088 Name: WALGETT AIRPORT AWS Lat: -30.04 Lon: 148.12 Height: 133.0 m
Data from the previous 72 hours. | See also: Recent months at Walgett
Date/Time
EST
Temp
°C
App
Temp
°C
Dew
Point
°C
Rel
Hum
%
Delta-T
°C
Wind Press
QNH
hPa
Press
MSL
hPa
Rain since
9am
mm
Dir  Spd
km/h
Gust
km/h
Spd
kts
Gust
kts
28/07:30am 1.9 -1.2 1.3 96 0.2 WSW 7 9 4 5 1026.4 1026.4 0.2
28/07:00am 1.4 -2.2 0.8 96 0.2 WSW 9 11 5 6 1026.1 1026.1 0.0
28/06:30am 1.3 -2.3 0.6 95 0.3 WSW 9 11 5 6 1025.9 1025.9 0.0
28/06:00am 2.2 -2.0 1.6 96 0.2 WSW 13 13 7 7 1025.4 1025.4 0.0
28/05:30am 2.0 -1.9 1.4 96 0.2 WSW 11 13 6 7 1025.2 1025.2 0.0
28/05:00am 2.0 -1.9 1.3 95 0.3 WSW 11 13 6 7 1024.9 1025.0 0.0
28/04:30am 2.2 -2.0 1.5 95 0.3 WSW 13 13 7 7 1024.7 1024.8 0.0
28/04:00am 2.5 -1.7 1.9 96 0.2 WSW 13 15 7 8 1024.7 1024.8 0.0
28/03:30am 2.3 -1.9 1.6 95 0.3 WSW 13 13 7 7 1024.6 1024.7 0.0
28/03:00am 2.7 -1.1 2.0 95 0.3 WSW 11 13 6 7 1024.7 1024.8 0.0
28/02:30am 2.9 -1.2 2.2 95 0.3 WSW 13 13 7 7 1024.7 1024.8 0.0
28/02:00am 3.3 -0.4 2.6 95 0.3 WSW 11 13 6 7 1024.7 1024.8 0.0
28/01:30am 2.9 -0.9 2.0 94 0.4 WSW 11 13 6 7 1024.5 1024.6 0.0
28/01:00am 3.3 -0.4 2.6 95 0.3 W 11 13 6 7 1024.4 1024.5 0.0
28/12:30am 3.0 -0.7 2.1 94 0.4 W 11 13 6 7 1024.4 1024.5 0.0
28/12:00am 3.3 -0.4 2.3 93 0.4 WSW 11 13 6 7 1024.3 1024.4 0.0
 
Date/Time
EST
Temp
°C
App
Temp
°C
Dew
Point
°C
Rel
Hum
%
Delta-T
°C
Wind Press
QNH
hPa
Press
MSL
hPa
Rain since
9am
mm
Dir  Spd
km/h
Gust
km/h
Spd
kts
Gust
kts
27/11:30pm 3.7 0.0 2.5 92 0.5 W 11 13 6 7 1024.3 1024.4 0.0
27/11:00pm 4.2 1.0 3.0 92 0.5 W 9 11 5 6 1024.3 1024.4 0.0
27/10:30pm 4.3 0.7 2.8 90 0.6 WSW 11 13 6 7 1024.2 1024.3 0.0
27/10:00pm 5.0 1.9 3.8 92 0.5 WSW 9 11 5 6 1024.0 1024.1 0.0
27/09:30pm 5.0 1.9 3.5 90 0.6 W 9 13 5 7 1023.9 1024.0 0.0
27/09:00pm 5.5 2.8 3.7 88 0.8 W 7 9 4 5 1023.7 1023.8 0.0
27/08:30pm 5.6 2.5 3.8 88 0.8 W 9 11 5 6 1023.4 1023.5 0.0
27/08:00pm 5.7 3.0 3.7 87 0.8 WSW 7 9 4 5 1023.2 1023.3 0.0
27/07:30pm 6.3 3.7 4.1 86 0.9 WSW 7 9 4 5 1023.0 1023.1 0.0
27/07:00pm 6.5 3.4 3.7 82 1.2 SW 9 11 5 6 1022.7 1022.8 0.0
27/06:30pm 7.3 4.3 4.1 80 1.4 SW 9 13 5 7 1022.5 1022.6 0.0
27/06:00pm 7.6 4.7 4.7 82 1.3 SW 9 13 5 7 1022.0 1022.1 0.0
27/05:30pm 7.4 4.5 4.7 83 1.2 WSW 9 11 5 6 1021.5 1021.6 0.0
27/05:00pm 8.2 5.3 4.6 78 1.6 SW 9 13 5 7 1021.2 1021.3 0.0
27/04:30pm 8.5 4.7 4.1 74 1.9 SW 13 19 7 10 1020.8 1020.9 0.0
27/04:00pm 8.9 3.4 4.1 72 2.1 SW 22 28 12 15 1020.7 1020.8 0.0
27/03:30pm 8.8 3.8 4.8 76 1.8 WSW 20 26 11 14 1020.4 1020.5 0.0
27/03:00pm 9.4 4.3 4.0 69 2.4 SW 20 24 11 13 1020.1 1020.1 0.0
27/02:30pm 9.2 4.1 4.2 71 2.2 WSW 20 28 11 15 1019.7 1019.7 0.0
27/02:00pm 9.1 3.7 4.5 73 2.0 SW 22 30 12 16 1019.6 1019.6 0.0
27/01:30pm 9.4 4.4 4.4 71 2.2 WSW 20 28 11 15 1019.5 1019.5 0.0
27/01:00pm 9.1 4.2 3.9 70 2.3 SW 19 26 10 14 1019.6 1019.6 0.0
27/12:30pm 9.2 4.3 4.2 71 2.2 WSW 19 24 10 13 1019.7 1019.7 0.0
27/12:00pm 9.0 4.1 4.0 71 2.2 SW 19 26 10 14 1020.0 1020.0 0.0
27/11:30am 8.6 4.2 4.6 76 1.8 WSW 17 20 9 11 1020.3 1020.4 0.0
27/11:00am 8.3 3.8 4.1 75 1.8 SW 17 24 9 13 1020.5 1020.6 0.0
27/10:30am 8.1 4.2 5.2 82 1.3 SW 15 19 8 10 1020.5 1020.6 0.0
27/10:08am 7.1 2.3 4.6 84 1.1 SW 19 24 10 13 1020.7 1020.8 0.0
27/10:00am 7.1 2.3 4.4 83 1.2 SW 19 24 10 13 1020.7 1020.8 0.0
27/09:55am 7.2 2.4 4.7 84 1.1 SW 19 24 10 13 1020.6 1020.7 0.0
27/09:30am 7.1 3.2 5.4 89 0.8 SSW 15 20 8 11 1020.5 1020.6 0.0
27/09:15am 6.8 2.4 5.0 88 0.8 SSW 17 20 9 11 1020.4 1020.5 0.0
27/09:00am 6.8 3.0 5.6 92 0.5 SSW 15 20 8 11 1020.1 1020.1 3.4
27/08:30am 6.1 0.8 5.2 94 0.4 SSW 22 28 12 15 1019.9 1019.9 3.4
27/08:00am 6.0 1.7 5.3 95 0.3 SW 17 24 9 13 1019.6 1019.6 3.4
27/07:56am 6.0 1.3 5.3 95 0.3 SW 19 24 10 13 1019.6 1019.6 3.4
27/07:37am 6.3 2.5 5.6 95 0.3 SW 15 26 8 14 1019.3 1019.3 3.4
27/07:30am 6.6 3.6 6.0 96 0.3 SW 11 17 6 9 1019.2 1019.2 3.2
27/07:16am 6.6 4.0 6.0 96 0.3 SW 9 13 5 7 1019.0 1019.0 3.2
27/07:00am 6.6 4.0 6.0 96 0.3 SW 9 13 5 7 1018.8 1018.8 3.2
27/06:55am 6.6 4.0 6.0 96 0.3 SW 9 13 5 7 1018.7 1018.7 3.2
27/06:30am 6.6 4.0 5.9 95 0.3 SW 9 13 5 7 1018.4 1018.4 3.2
27/06:28am 6.6 4.0 5.9 95 0.3 SW 9 13 5 7 1018.4 1018.4 3.2
27/06:00am 6.6 4.0 5.9 95 0.3 SW 9 13 5 7 1018.1 1018.1 3.2
27/05:31am 6.5 3.5 5.8 95 0.3 SW 11 15 6 8 1017.7 1017.7 3.2
27/05:30am 6.5 3.5 5.8 95 0.3 SW 11 15 6 8 1017.7 1017.7 3.2
27/05:00am 6.6 3.6 5.9 95 0.3 SW 11 17 6 9 1017.1 1017.2 3.2
27/04:32am 6.7 3.7 6.1 96 0.3 SW 11 17 6 9 1017.0 1017.1 3.2
27/04:30am 6.7 4.1 6.1 96 0.3 SW 9 13 5 7 1017.0 1017.1 3.2
27/04:02am 6.7 3.7 6.0 95 0.3 SW 11 15 6 8 1017.1 1017.2 3.0
27/04:00am 6.7 3.7 6.0 95 0.3 SW 11 15 6 8 1017.1 1017.2 3.0
27/03:30am 7.0 4.1 6.4 96 0.3 WSW 11 15 6 8 1017.3 1017.3 2.6
27/03:26am 7.0 4.5 6.4 96 0.3 WSW 9 13 5 7 1017.1 1017.2 2.6
27/03:00am 7.0 4.1 6.3 95 0.3 WSW 11 13 6 7 1016.8 1016.9 2.6
27/02:30am 7.0 4.4 6.3 95 0.3 W 9 11 5 6 1017.0 1017.1 2.4
27/02:00am 7.1 4.9 6.4 95 0.3 WNW 7 11 4 6 1016.9 1017.0 2.2
27/01:54am 7.1 5.1 6.4 95 0.3 NNE 6 9 3 5 1016.6 1016.7 2.0
27/01:44am 7.1 4.6 6.4 95 0.3 NE 9 13 5 7 1015.9 1016.0 1.8
27/01:30am 7.1 4.6 6.4 95 0.3 NNE 9 11 5 6 1016.3 1016.4 1.0
27/01:00am 7.1 6.2 6.0 93 0.5 CALM 0 0 0 0 1016.5 1016.6 0.8
27/12:30am 7.1 5.0 6.0 93 0.5 SW 6 7 3 4 1016.7 1016.8 0.6
27/12:00am 7.2 6.2 5.8 91 0.6 CALM 0 0 0 0 1016.6 1016.7 0.2
 
Date/Time
EST
Temp
°C
App
Temp
°C
Dew
Point
°C
Rel
Hum
%
Delta-T
°C
Wind Press
QNH
hPa
Press
MSL
hPa
Rain since
9am
mm
Dir  Spd
km/h
Gust
km/h
Spd
kts
Gust
kts
26/11:30pm 7.5 6.5 5.6 88 0.9 CALM 0 0 0 0 1017.1 1017.2 0.0
26/11:00pm 7.6 6.6 5.4 86 1.0 CALM 0 0 0 0 1017.0 1017.1 0.0
26/10:30pm 7.8 5.5 4.9 82 1.3 ENE 6 7 3 4 1016.8 1016.9 0.0
26/10:00pm 7.9 4.3 5.0 82 1.3 NE 13 17 7 9 1017.3 1017.3 0.0
26/09:30pm 7.8 3.5 5.1 83 1.2 SSE 17 22 9 12 1016.6 1016.7 0.0
26/09:00pm 8.0 4.0 4.9 81 1.4 SE 15 20 8 11 1017.0 1017.1 0.0
26/08:30pm 8.0 5.1 4.9 81 1.4 SE 9 11 5 6 1018.1 1018.1 0.0
26/08:00pm 8.2 5.0 5.0 80 1.4 SSE 11 15 6 8 1018.0 1018.0 0.0
26/07:30pm 8.3 5.5 5.1 80 1.4 SE 9 13 5 7 1018.1 1018.1 0.0
26/07:00pm 8.4 4.8 5.2 80 1.4 S 13 19 7 10 1018.2 1018.2 0.0
26/06:30pm 8.6 5.9 5.5 81 1.4 SSW 9 11 5 6 1018.3 1018.3 0.0
26/06:00pm 8.6 6.3 4.6 76 1.8 SSW 6 7 3 4 1018.1 1018.1 0.0
26/05:30pm 9.0 7.4 4.4 73 2.0 SSW 2 6 1 3 1017.8 1017.8 0.0
26/05:00pm 9.5 6.6 4.5 71 2.2 SW 9 13 5 7 1018.5 1018.5 0.0
26/04:30pm 9.9 7.5 4.3 68 2.5 SSE 6 11 3 6 1017.6 1017.6 0.0
26/04:00pm 10.2 7.2 3.9 65 2.8 S 9 9 5 5 1018.1 1018.1 0.0
26/03:30pm 10.3 8.0 2.9 60 3.2 SSW 4 11 2 6 1017.4 1017.4 0.0
26/03:00pm 10.3 7.1 3.1 61 3.1 N 9 13 5 7 1017.3 1017.3 0.0
26/02:30pm 10.3 7.6 2.7 59 3.3 S 6 7 3 4 1017.6 1017.6 0.0
26/02:00pm 10.5 7.7 3.1 60 3.2 NE 7 11 4 6 1017.5 1017.5 0.0
26/01:30pm 10.6 7.0 3.2 60 3.2 N 11 17 6 9 1017.9 1017.9 0.0
26/01:00pm 10.0 7.4 3.1 62 3.0 NNE 6 11 3 6 1018.7 1018.7 0.0
26/12:30pm 9.4 7.1 2.5 62 2.9 SE 4 13 2 7 1018.8 1018.8 0.0
26/12:00pm 9.4 5.5 3.2 65 2.7 NNE 13 19 7 10 1019.4 1019.4 0.0
26/11:30am 8.9 5.0 3.3 68 2.4 NE 13 20 7 11 1019.2 1019.2 0.0
26/11:00am 8.0 4.2 3.7 74 1.9 ENE 13 17 7 9 1020.2 1020.3 0.0
26/10:30am 7.6 4.5 3.5 75 1.8 NNE 9 13 5 7 1021.2 1021.3 0.0
26/10:00am 6.4 3.9 3.7 83 1.1 NE 6 7 3 4 1021.2 1021.3 0.0
26/09:30am 5.7 3.0 3.7 87 0.8 SE 7 9 4 5 1021.5 1021.6 0.0
26/09:00am 4.8 2.3 3.5 91 0.5 S 6 7 3 4 1021.8 1021.9 0.0
26/08:30am 4.2 1.4 3.3 94 0.4 SSW 7 9 4 5 1022.2 1022.3 0.0
26/08:00am 3.8 2.3 3.2 96 0.2 CALM 0 9 0 5 1021.8 1021.9 0.0
26/07:30am 3.2 1.6 2.5 95 0.3 CALM 0 0 0 0 1021.0 1021.1 0.0
26/07:00am 3.2 1.6 2.5 95 0.3 CALM 0 0 0 0 1020.6 1020.7 0.0
26/06:30am 3.1 1.5 2.2 94 0.4 CALM 0 0 0 0 1021.5 1021.6 0.0
26/06:00am 2.8 1.1 1.8 93 0.4 CALM 0 0 0 0 1021.3 1021.4 0.0
26/05:30am 2.8 1.1 1.9 94 0.4 CALM 0 0 0 0 1020.6 1020.7 0.0
26/05:00am 2.9 0.5 2.0 94 0.4 SSW 4 7 2 4 1020.7 1020.8 0.0
26/04:30am 2.8 0.4 1.9 94 0.4 S 4 7 2 4 1020.6 1020.7 0.0
26/04:00am 2.7 -0.1 2.0 95 0.3 SSE 6 7 3 4 1020.2 1020.3 0.0
26/03:30am 2.1 -1.4 1.2 94 0.3 S 9 9 5 5 1020.6 1020.7 0.0
26/03:00am 2.2 -0.7 1.5 95 0.3 S 6 6 3 3 1020.8 1020.9 0.0
26/02:30am 1.2 -2.1 0.3 94 0.3 S 7 9 4 5 1020.9 1021.0 0.0
26/02:00am 1.1 -0.9 0.1 93 0.4 CALM 0 0 0 0 1021.1 1021.2 0.0
26/01:30am 1.2 -2.1 -0.1 91 0.5 S 7 7 4 4 1021.3 1021.4 0.0
26/01:00am 2.2 -0.8 1.0 92 0.5 SW 6 7 3 4 1021.5 1021.6 0.0
26/12:30am 2.3 -0.9 1.0 91 0.5 SSW 7 7 4 4 1021.9 1022.0 0.0
26/12:00am 1.5 -1.8 0.0 90 0.5 SSW 7 7 4 4 1022.0 1022.1 0.0
 
Date/Time
EST
Temp
°C
App
Temp
°C
Dew
Point
°C
Rel
Hum
%
Delta-T
°C
Wind Press
QNH
hPa
Press
MSL
hPa
Rain since
9am
mm
Dir  Spd
km/h
Gust
km/h
Spd
kts
Gust
kts
25/11:30pm 2.3 -0.7 1.0 91 0.5 SSW 6 7 3 4 1022.5 1022.6 0.0
25/11:00pm 2.7 -0.9 0.8 87 0.7 SSW 9 11 5 6 1022.3 1022.4 0.0
25/10:30pm 3.4 -0.1 1.3 86 0.8 SSW 9 9 5 5 1022.6 1022.7 0.0
25/10:00pm 3.7 0.6 1.4 85 0.9 SSW 7 9 4 5 1022.4 1022.5 0.0
25/09:30pm 3.6 0.4 0.7 81 1.1 SSW 7 9 4 5 1022.6 1022.7 0.0
25/09:00pm 4.2 1.0 0.9 79 1.3 SSW 7 9 4 5 1022.9 1023.0 0.0
25/08:30pm 5.6 1.8 1.9 77 1.5 SSW 11 15 6 8 1022.9 1023.0 0.0
25/08:00pm 5.4 1.7 2.1 79 1.3 SW 11 13 6 7 1023.0 1023.1 0.0
25/07:30pm 4.8 0.7 2.0 82 1.1 SSW 13 13 7 7 1022.7 1022.8 0.0
25/07:00pm 5.4 2.1 2.4 81 1.2 S 9 13 5 7 1022.4 1022.5 0.0
25/06:30pm 6.2 3.0 2.8 79 1.4 SSW 9 11 5 6 1022.4 1022.5 0.0
25/06:00pm 6.5 2.8 2.4 75 1.7 S 11 13 6 7 1022.1 1022.2 0.0
25/05:30pm 8.1 4.2 1.3 62 2.8 SSW 11 13 6 7 1022.0 1022.1 0.0
25/05:00pm 9.7 5.5 1.8 58 3.3 S 13 17 7 9 1021.8 1021.9 0.0
25/04:30pm 10.6 5.6 1.4 53 3.9 S 17 22 9 12 1021.6 1021.7 0.0
25/04:00pm 11.1 6.5 1.4 51 4.1 SSW 15 22 8 12 1021.5 1021.6 0.0
25/03:30pm 11.3 6.3 1.3 50 4.2 SSW 17 24 9 13 1021.6 1021.7 0.0
25/03:00pm 11.1 5.6 0.5 48 4.4 SSW 19 24 10 13 1021.6 1021.7 0.0
25/02:30pm 11.4 6.0 1.4 50 4.2 SSW 19 26 10 14 1021.8 1021.9 0.0
25/02:00pm 11.2 6.3 2.0 53 3.9 SSW 17 22 9 12 1022.1 1022.2 0.0
25/01:30pm 11.0 6.2 2.6 56 3.6 SSW 17 24 9 13 1022.5 1022.6 0.0
25/01:00pm 11.1 5.8 2.9 57 3.6 SSW 20 26 11 14 1022.8 1022.9 0.0
25/12:30pm 10.7 5.5 2.5 57 3.5 SSW 19 26 10 14 1023.1 1023.2 0.0
25/12:00pm 10.4 5.7 3.2 61 3.1 S 17 24 9 13 1023.4 1023.5 0.0
25/11:30am 9.7 4.8 2.3 60 3.2 SSW 17 24 9 13 1023.9 1024.0 0.0
25/11:00am 9.4 4.4 3.4 66 2.6 S 19 24 10 13 1024.2 1024.3 0.0
25/10:30am 8.6 3.3 3.0 68 2.4 S 20 28 11 15 1024.5 1024.6 0.0
25/10:00am 8.3 3.0 3.0 69 2.3 S 20 28 11 15 1024.3 1024.4 0.0
25/09:30am 7.4 2.6 2.5 71 2.1 SSW 17 22 9 12 1024.3 1024.4 0.0
25/09:00am 6.6 2.1 2.3 74 1.8 SW 15 20 8 11 1024.1 1024.2 0.0
25/08:30am 5.7 1.6 2.0 77 1.5 SW 13 20 7 11 1023.9 1024.0 0.0
25/08:00am 4.7 0.9 1.7 81 1.2 SW 11 15 6 8 1023.7 1023.8 0.0

Other Formats:

Comma delimited format used in spreadsheet applications
http://www.bom.gov.au/fwo/IDN60801/IDN60801.95715.axf

JavaScript Object Notation format (JSON) in row-major order
http://www.bom.gov.au/fwo/IDN60801/IDN60801.95715.json